Time;durP1;ratioP1;P1;durP2;ratioP2;P2;SDS_P1;SDS_P2;PMS_P1;PMS_P2;Temp;Humidity;BMP_temperature;BMP_pressure;BME280_temperature;BME280_humidity;BME280_pressure;Samples;Min_cycle;Max_cycle;Signal;HPM_P1;HPM_P2
2021/05/24 00:01:59;;;;;;;1.10;0.87;;;;;;;;;;10524602;28;20306;-70
2021/05/24 00:07:02;;;;;;;1.97;1.10;;;;;;;;;;10508901;28;20230;-69
2021/05/24 00:12:07;;;;;;;2.47;1.20;;;;;;;;;;10523362;28;20226;-70
2021/05/24 00:17:10;;;;;;;1.90;1.07;;;;;;;;;;10525061;28;20207;-70
2021/05/24 00:22:13;;;;;;;1.97;1.00;;;;;;;;;;10535286;28;20216;-70
2021/05/24 00:27:17;;;;;;;4.60;1.30;;;;;;;;;;10528945;28;20230;-70
2021/05/24 00:32:19;;;;;;;2.17;1.27;;;;;;;;;;10530319;28;20223;-69
2021/05/24 00:37:22;;;;;;;1.93;1.20;;;;;;;;;;10533012;28;20260;-69
2021/05/24 00:42:26;;;;;;;2.03;1.10;;;;;;;;;;10539229;28;20723;-69
2021/05/24 00:47:29;;;;;;;2.83;1.20;;;;;;;;;;10531457;28;20260;-69
2021/05/24 00:52:33;;;;;;;1.43;1.10;;;;;;;;;;10535456;28;20273;-69
2021/05/24 00:57:37;;;;;;;3.63;1.30;;;;;;;;;;10536540;28;20225;-69
2021/05/24 01:02:40;;;;;;;2.20;1.10;;;;;;;;;;10529293;28;20303;-70
2021/05/24 01:07:45;;;;;;;3.03;1.20;;;;;;;;;;10530073;28;20192;-69
2021/05/24 01:12:49;;;;;;;4.93;1.40;;;;;;;;;;10528363;28;20285;-69
2021/05/24 01:17:55;;;;;;;2.60;1.30;;;;;;;;;;10527855;28;20556;-68
2021/05/24 01:23:07;;;;;;;2.20;1.00;;;;;;;;;;10536627;28;20224;-69
2021/05/24 01:28:11;;;;;;;1.10;1.00;;;;;;;;;;10535791;28;20826;-67
2021/05/24 01:33:16;;;;;;;3.50;1.10;;;;;;;;;;10534305;28;20297;-69
2021/05/24 01:38:21;;;;;;;1.50;0.83;;;;;;;;;;10531549;28;20916;-70
2021/05/24 01:43:26;;;;;;;3.13;1.03;;;;;;;;;;10523727;28;20223;-70
2021/05/24 01:48:29;;;;;;;2.03;1.17;;;;;;;;;;10546604;28;20687;-70
2021/05/24 01:53:34;;;;;;;1.93;1.13;;;;;;;;;;10533503;28;20214;-70
2021/05/24 01:58:36;;;;;;;2.83;1.40;;;;;;;;;;10534192;28;20441;-70
2021/05/24 02:03:39;;;;;;;1.67;1.10;;;;;;;;;;10531138;28;20730;-70
2021/05/24 02:08:43;;;;;;;3.73;1.30;;;;;;;;;;10526641;28;20215;-70
2021/05/24 02:13:46;;;;;;;2.67;1.30;;;;;;;;;;10537793;28;20598;-70
2021/05/24 02:18:49;;;;;;;1.67;1.00;;;;;;;;;;10531890;28;20195;-70
2021/05/24 02:23:52;;;;;;;1.17;1.00;;;;;;;;;;10524756;28;20563;-69
2021/05/24 02:28:55;;;;;;;3.00;1.20;;;;;;;;;;10531025;28;20571;-70
2021/05/24 02:33:58;;;;;;;2.43;1.07;;;;;;;;;;10530078;28;20227;-69
2021/05/24 02:39:03;;;;;;;2.67;1.33;;;;;;;;;;10537296;28;20279;-69
2021/05/24 02:44:07;;;;;;;2.47;1.10;;;;;;;;;;10519792;28;20525;-69
2021/05/24 02:49:09;;;;;;;2.27;1.40;;;;;;;;;;10521676;28;20647;-70
2021/05/24 02:54:13;;;;;;;2.77;1.30;;;;;;;;;;10540692;28;20230;-70
2021/05/24 02:59:16;;;;;;;2.17;1.30;;;;;;;;;;10538444;28;20287;-69
2021/05/24 03:04:25;;;;;;;2.87;1.30;;;;;;;;;;10533561;28;20231;-70
2021/05/24 03:09:28;;;;;;;2.80;1.30;;;;;;;;;;10521779;28;20192;-70
2021/05/24 03:14:31;;;;;;;1.37;1.20;;;;;;;;;;10540429;28;20232;-69
2021/05/24 03:19:34;;;;;;;3.17;1.43;;;;;;;;;;10520976;28;20204;-70
2021/05/24 03:24:38;;;;;;;2.67;1.43;;;;;;;;;;10534642;28;20219;-70
2021/05/24 03:29:42;;;;;;;2.33;1.50;;;;;;;;;;10534914;28;20202;-71
2021/05/24 03:34:45;;;;;;;1.77;1.30;;;;;;;;;;10524924;28;20254;-70
2021/05/24 03:39:49;;;;;;;3.57;1.50;;;;;;;;;;10530433;28;20286;-71
2021/05/24 03:44:51;;;;;;;2.77;1.40;;;;;;;;;;10530711;28;20272;-70
2021/05/24 03:49:54;;;;;;;2.10;1.40;;;;;;;;;;10529050;28;20234;-70
2021/05/24 03:55:01;;;;;;;2.67;1.30;;;;;;;;;;10530650;28;20241;-72
2021/05/24 04:00:05;;;;;;;3.27;1.40;;;;;;;;;;10522334;28;20580;-70
2021/05/24 04:05:14;;;;;;;1.77;0.83;;;;;;;;;;10525442;28;20218;-70
2021/05/24 04:10:20;;;;;;;2.67;0.97;;;;;;;;;;10532325;28;20298;-71
2021/05/24 04:15:23;;;;;;;3.03;1.37;;;;;;;;;;10532555;28;20627;-71
2021/05/24 04:20:47;;;;;;;1.90;1.00;;;;;;;;;;10529400;28;20227;-72
2021/05/24 04:26:11;;;;;;;2.63;1.23;;;;;;;;;;10532798;28;20211;-71
2021/05/24 04:31:34;;;;;;;3.87;1.70;;;;;;;;;;10530791;28;20743;-71
2021/05/24 04:36:57;;;;;;;1.80;1.10;;;;;;;;;;10520996;28;20291;-69
2021/05/24 04:42:22;;;;;;;3.63;1.20;;;;;;;;;;10522074;28;20577;-70
2021/05/24 04:47:44;;;;;;;3.40;1.40;;;;;;;;;;10515618;28;20263;-70
2021/05/24 04:53:07;;;;;;;1.90;1.30;;;;;;;;;;10522516;28;20266;-70
2021/05/24 04:58:31;;;;;;;4.13;1.20;;;;;;;;;;10524575;28;20195;-70
2021/05/24 05:03:34;;;;;;;1.70;1.10;;;;;;;;;;10538020;28;20670;-70
2021/05/24 05:08:37;;;;;;;2.70;1.30;;;;;;;;;;10529493;28;20198;-70
2021/05/24 05:13:40;;;;;;;2.43;1.20;;;;;;;;;;10526515;28;20602;-70
2021/05/24 05:18:43;;;;;;;2.20;1.03;;;;;;;;;;10534424;28;20200;-71
2021/05/24 05:23:46;;;;;;;3.13;1.23;;;;;;;;;;10529147;28;20686;-71
2021/05/24 05:28:50;;;;;;;3.13;1.10;;;;;;;;;;10538569;28;20246;-72
2021/05/24 05:33:52;;;;;;;2.43;1.20;;;;;;;;;;10521856;28;20212;-70
2021/05/24 05:38:56;;;;;;;3.27;1.20;;;;;;;;;;10536713;28;20187;-70
2021/05/24 05:43:59;;;;;;;3.70;1.00;;;;;;;;;;10526659;28;20748;-68
2021/05/24 05:49:02;;;;;;;1.53;0.97;;;;;;;;;;10544448;27;20241;-71
2021/05/24 05:54:05;;;;;;;1.83;1.00;;;;;;;;;;10531664;28;20682;-71
2021/05/24 05:59:08;;;;;;;1.47;0.90;;;;;;;;;;10529414;28;20257;-70
2021/05/24 06:04:11;;;;;;;3.03;1.10;;;;;;;;;;10535445;28;20214;-70
2021/05/24 06:09:14;;;;;;;2.40;1.10;;;;;;;;;;10528510;28;20320;-70
2021/05/24 06:14:18;;;;;;;1.60;1.00;;;;;;;;;;10529387;28;20207;-70
2021/05/24 06:19:20;;;;;;;1.20;0.80;;;;;;;;;;10534207;28;20632;-71
2021/05/24 06:24:23;;;;;;;0.53;0.53;;;;;;;;;;10533320;28;20223;-70
2021/05/24 06:29:31;;;;;;;1.17;0.80;;;;;;;;;;10537120;28;20539;-69
2021/05/24 06:34:34;;;;;;;2.93;0.90;;;;;;;;;;10530707;28;20216;-71
2021/05/24 06:39:36;;;;;;;1.37;0.67;;;;;;;;;;10530461;28;20187;-69
2021/05/24 06:44:40;;;;;;;1.87;0.90;;;;;;;;;;10531935;28;20208;-71
2021/05/24 06:49:42;;;;;;;1.73;0.93;;;;;;;;;;10537680;27;20382;-71
2021/05/24 06:54:45;;;;;;;1.13;0.80;;;;;;;;;;10525696;28;20211;-70
2021/05/24 06:59:48;;;;;;;0.60;0.60;;;;;;;;;;10527813;28;20195;-70
2021/05/24 07:04:51;;;;;;;1.20;0.90;;;;;;;;;;10533498;28;20216;-69
2021/05/24 07:09:53;;;;;;;0.70;0.70;;;;;;;;;;10525118;28;20194;-72
2021/05/24 07:15:03;;;;;;;1.60;0.67;;;;;;;;;;10549555;28;20519;-71
2021/05/24 07:20:06;;;;;;;1.30;0.83;;;;;;;;;;10527042;28;20249;-70
2021/05/24 07:25:09;;;;;;;1.20;0.70;;;;;;;;;;10526766;28;20215;-70
2021/05/24 07:30:13;;;;;;;0.80;0.67;;;;;;;;;;10522798;28;20203;-69
2021/05/24 07:35:16;;;;;;;1.77;0.70;;;;;;;;;;10536143;28;20774;-70
2021/05/24 07:40:18;;;;;;;1.43;0.80;;;;;;;;;;10528160;28;20248;-70
2021/05/24 07:45:22;;;;;;;1.40;0.80;;;;;;;;;;10522163;28;20695;-70
2021/05/24 07:50:25;;;;;;;2.60;0.80;;;;;;;;;;10529936;28;20192;-71
2021/05/24 07:55:27;;;;;;;0.90;0.80;;;;;;;;;;10529120;28;20283;-69
2021/05/24 08:00:31;;;;;;;1.20;0.80;;;;;;;;;;10522845;28;20196;-69
2021/05/24 08:05:33;;;;;;;2.07;0.90;;;;;;;;;;10520686;28;20219;-70
2021/05/24 08:10:36;;;;;;;1.30;0.73;;;;;;;;;;10526839;28;20241;-70
2021/05/24 08:15:41;;;;;;;2.23;0.87;;;;;;;;;;10534171;28;20652;-69
2021/05/24 08:20:43;;;;;;;1.33;0.80;;;;;;;;;;10527019;28;20204;-68
2021/05/24 08:25:46;;;;;;;1.80;1.00;;;;;;;;;;10516247;28;20238;-69
2021/05/24 08:30:49;;;;;;;2.27;0.80;;;;;;;;;;10522048;28;20570;-69
2021/05/24 08:35:51;;;;;;;2.07;0.80;;;;;;;;;;10505348;28;20192;-70
2021/05/24 08:40:54;;;;;;;1.57;1.00;;;;;;;;;;10526035;28;20298;-70
2021/05/24 08:45:58;;;;;;;1.40;0.70;;;;;;;;;;10526772;28;20247;-69
2021/05/24 08:51:01;;;;;;;0.93;0.73;;;;;;;;;;10532601;28;20679;-69
2021/05/24 08:56:03;;;;;;;2.20;0.83;;;;;;;;;;10522622;28;20531;-69
2021/05/24 09:01:07;;;;;;;1.77;1.17;;;;;;;;;;10525022;28;20223;-69
2021/05/24 09:06:10;;;;;;;1.40;0.80;;;;;;;;;;10528919;28;20627;-69
2021/05/24 09:11:24;;;;;;;2.17;0.90;;;;;;;;;;10525755;28;20316;-70
2021/05/24 09:16:29;;;;;;;1.63;1.00;;;;;;;;;;10526069;28;20253;-69
2021/05/24 09:21:31;;;;;;;1.10;1.00;;;;;;;;;;10527206;28;20216;-69
2021/05/24 09:26:35;;;;;;;2.83;0.90;;;;;;;;;;10527866;28;20196;-69
2021/05/24 09:31:39;;;;;;;1.60;1.00;;;;;;;;;;10527125;28;20216;-69
2021/05/24 09:36:41;;;;;;;1.40;0.90;;;;;;;;;;10528964;28;20188;-70
2021/05/24 09:41:44;;;;;;;1.77;0.90;;;;;;;;;;10528164;28;20218;-70
2021/05/24 09:46:48;;;;;;;1.80;0.80;;;;;;;;;;10528484;28;20191;-70
2021/05/24 09:51:52;;;;;;;1.40;1.00;;;;;;;;;;10528588;28;20573;-70
2021/05/24 09:56:54;;;;;;;1.80;1.10;;;;;;;;;;10539823;27;20290;-70
2021/05/24 10:01:59;;;;;;;2.10;1.10;;;;;;;;;;10518659;28;20221;-68
2021/05/24 10:07:02;;;;;;;3.40;1.00;;;;;;;;;;10517083;28;20215;-69
2021/05/24 10:12:06;;;;;;;2.30;1.10;;;;;;;;;;10520946;28;20638;-70
2021/05/24 10:17:12;;;;;;;1.10;0.80;;;;;;;;;;10526106;28;20192;-69
2021/05/24 10:22:15;;;;;;;3.40;1.40;;;;;;;;;;10520651;28;20547;-67
2021/05/24 10:27:20;;;;;;;2.53;1.20;;;;;;;;;;10530660;28;20680;-69
2021/05/24 10:32:34;;;;;;;2.40;1.10;;;;;;;;;;10523624;28;20227;-69
2021/05/24 10:37:39;;;;;;;1.33;1.10;;;;;;;;;;10515798;28;20615;-70
2021/05/24 10:42:44;;;;;;;2.63;1.17;;;;;;;;;;10540728;28;20216;-70
2021/05/24 10:47:52;;;;;;;2.50;1.37;;;;;;;;;;10523435;28;20188;-69
2021/05/24 10:52:54;;;;;;;2.57;1.20;;;;;;;;;;10523626;28;20204;-71
2021/05/24 10:57:57;;;;;;;2.07;1.40;;;;;;;;;;10522411;28;20191;-68
2021/05/24 11:03:08;;;;;;;2.53;1.17;;;;;;;;;;10522954;28;20212;-70
2021/05/24 11:08:11;;;;;;;2.87;1.17;;;;;;;;;;10515802;28;20188;-70
2021/05/24 11:13:21;;;;;;;1.83;1.00;;;;;;;;;;10522181;28;20665;-71
2021/05/24 11:18:25;;;;;;;3.03;1.40;;;;;;;;;;10537916;28;20218;-71
2021/05/24 11:23:33;;;;;;;2.80;1.20;;;;;;;;;;10525056;28;20209;-71
2021/05/24 11:28:36;;;;;;;1.27;0.93;;;;;;;;;;10529012;28;20202;-71
2021/05/24 11:33:41;;;;;;;1.80;1.30;;;;;;;;;;10511534;28;20216;-70
2021/05/24 11:38:58;;;;;;;2.60;1.50;;;;;;;;;;10527115;28;20188;-70
2021/05/24 11:44:02;;;;;;;2.60;1.30;;;;;;;;;;10520529;28;20257;-71
2021/05/24 11:49:05;;;;;;;4.20;1.50;;;;;;;;;;10521702;28;20612;-69
2021/05/24 11:54:08;;;;;;;2.37;1.27;;;;;;;;;;10520753;28;20208;-71
2021/05/24 11:59:11;;;;;;;2.40;1.33;;;;;;;;;;10520814;28;20619;-71
2021/05/24 12:04:15;;;;;;;2.40;1.20;;;;;;;;;;10520217;28;20253;-70
2021/05/24 12:09:34;;;;;;;2.63;1.50;;;;;;;;;;10525991;28;20196;-71
2021/05/24 12:14:36;;;;;;;1.67;1.10;;;;;;;;;;10525336;28;20228;-71
2021/05/24 12:19:40;;;;;;;3.07;1.20;;;;;;;;;;10521587;28;20272;-71
2021/05/24 12:24:42;;;;;;;3.50;1.63;;;;;;;;;;10516176;28;20224;-71
2021/05/24 12:30:03;;;;;;;1.57;1.00;;;;;;;;;;10527248;28;20516;-71
2021/05/24 12:35:07;;;;;;;3.10;1.30;;;;;;;;;;10518410;28;20222;-70
2021/05/24 12:40:11;;;;;;;1.93;1.20;;;;;;;;;;10519056;28;20614;-69
2021/05/24 12:45:14;;;;;;;1.97;1.30;;;;;;;;;;10518622;28;20246;-71
2021/05/24 12:50:18;;;;;;;1.30;1.20;;;;;;;;;;10511029;28;20210;-71
2021/05/24 12:55:20;;;;;;;3.47;1.40;;;;;;;;;;10522446;28;20212;-71
2021/05/24 13:00:24;;;;;;;1.97;1.07;;;;;;;;;;10514902;28;20187;-70
2021/05/24 13:05:28;;;;;;;2.07;1.17;;;;;;;;;;10511464;28;20299;-70
2021/05/24 13:10:33;;;;;;;3.40;1.30;;;;;;;;;;10501661;28;20207;-70
2021/05/24 13:15:37;;;;;;;1.70;1.00;;;;;;;;;;10516644;28;20635;-69
2021/05/24 13:21:01;;;;;;;3.83;1.40;;;;;;;;;;10521486;28;20200;-68
2021/05/24 13:31:26;;;;;;;1.07;0.97;;;;;;;;;;10527427;28;20216;-70
2021/05/24 13:36:30;;;;;;;2.17;1.10;;;;;;;;;;10512399;28;20223;-71
2021/05/24 13:41:32;;;;;;;1.47;1.10;;;;;;;;;;10530457;28;20587;-70
2021/05/24 13:46:34;;;;;;;1.37;0.90;;;;;;;;;;10528367;28;20261;-69
2021/05/24 13:51:38;;;;;;;2.30;1.20;;;;;;;;;;10521826;28;20225;-70
2021/05/24 13:56:41;;;;;;;2.33;1.17;;;;;;;;;;10520914;28;20194;-70
2021/05/24 14:01:43;;;;;;;1.63;1.30;;;;;;;;;;10522027;28;20269;-70
2021/05/24 14:06:47;;;;;;;2.60;1.13;;;;;;;;;;10523375;28;20311;-71
2021/05/24 14:11:49;;;;;;;2.30;1.30;;;;;;;;;;10523670;28;20700;-71
2021/05/24 14:17:09;;;;;;;3.33;1.50;;;;;;;;;;10517869;28;20206;-69
2021/05/24 14:22:13;;;;;;;1.37;0.97;;;;;;;;;;10526201;28;20578;-69
2021/05/24 14:27:15;;;;;;;1.87;1.10;;;;;;;;;;10518426;28;20199;-70
2021/05/24 14:32:17;;;;;;;2.57;1.50;;;;;;;;;;10508185;28;20216;-70
2021/05/24 14:37:21;;;;;;;4.37;1.67;;;;;;;;;;10518218;28;20193;-70
2021/05/24 14:42:23;;;;;;;4.60;2.03;;;;;;;;;;10517843;28;20250;-70
2021/05/24 14:47:28;;;;;;;3.73;1.70;;;;;;;;;;10522913;28;20192;-70
2021/05/24 14:52:31;;;;;;;3.00;1.23;;;;;;;;;;10522648;28;20224;-70
2021/05/24 14:57:34;;;;;;;3.97;2.07;;;;;;;;;;10520079;28;20194;-71
2021/05/24 15:02:36;;;;;;;3.83;1.63;;;;;;;;;;10518863;28;20479;-67
2021/05/24 15:07:39;;;;;;;2.20;1.27;;;;;;;;;;10515672;28;20265;-72
2021/05/24 15:12:43;;;;;;;2.60;1.37;;;;;;;;;;10520367;28;20227;-68
2021/05/24 15:17:46;;;;;;;5.00;2.03;;;;;;;;;;10517035;28;20199;-68
2021/05/24 15:22:51;;;;;;;4.30;2.00;;;;;;;;;;10523465;28;20310;-68
2021/05/24 15:27:54;;;;;;;4.60;2.10;;;;;;;;;;10522210;28;20200;-70
2021/05/24 15:32:57;;;;;;;5.73;2.00;;;;;;;;;;10513905;28;20216;-68
2021/05/24 15:38:02;;;;;;;7.13;3.20;;;;;;;;;;10515227;28;20208;-70
2021/05/24 15:43:06;;;;;;;5.43;2.57;;;;;;;;;;10509786;28;20243;-71
2021/05/24 15:48:10;;;;;;;3.33;1.90;;;;;;;;;;10513559;28;20214;-68
2021/05/24 15:53:14;;;;;;;5.93;2.90;;;;;;;;;;10526660;28;20324;-71
2021/05/24 15:58:16;;;;;;;6.80;3.30;;;;;;;;;;10523439;28;20183;-71
2021/05/24 16:03:18;;;;;;;7.03;3.40;;;;;;;;;;10522893;28;20290;-72
2021/05/24 16:08:22;;;;;;;4.07;1.87;;;;;;;;;;10527215;28;20226;-71
2021/05/24 16:13:24;;;;;;;3.50;1.80;;;;;;;;;;10531611;28;20231;-69
2021/05/24 16:18:26;;;;;;;4.03;1.70;;;;;;;;;;10516603;28;20187;-72
2021/05/24 16:23:32;;;;;;;4.43;1.77;;;;;;;;;;10517997;28;20279;-69
2021/05/24 16:28:36;;;;;;;2.87;1.63;;;;;;;;;;10519098;28;20279;-71
2021/05/24 16:33:38;;;;;;;4.33;2.17;;;;;;;;;;10509600;28;20295;-72
2021/05/24 16:38:41;;;;;;;5.90;2.17;;;;;;;;;;10519243;28;20264;-70
2021/05/24 16:43:44;;;;;;;4.97;2.60;;;;;;;;;;10515653;28;20256;-70
2021/05/24 16:48:46;;;;;;;5.43;2.17;;;;;;;;;;10525447;28;20211;-69
2021/05/24 16:53:49;;;;;;;3.90;2.20;;;;;;;;;;10518076;28;20668;-70
2021/05/24 16:58:51;;;;;;;5.33;2.53;;;;;;;;;;10515478;28;20194;-69
2021/05/24 17:03:54;;;;;;;6.63;2.20;;;;;;;;;;10524022;28;20220;-70
2021/05/24 17:08:57;;;;;;;5.23;2.00;;;;;;;;;;10524596;28;20196;-70
2021/05/24 17:14:02;;;;;;;5.80;2.50;;;;;;;;;;10525501;28;20226;-70
2021/05/24 17:19:04;;;;;;;5.70;2.80;;;;;;;;;;10511682;28;20567;-70
2021/05/24 17:24:08;;;;;;;3.83;1.90;;;;;;;;;;10518463;28;20199;-71
2021/05/24 17:29:10;;;;;;;3.90;1.90;;;;;;;;;;10524065;28;20187;-71
2021/05/24 17:34:12;;;;;;;4.90;2.70;;;;;;;;;;10516003;28;20235;-70
2021/05/24 17:39:15;;;;;;;5.77;2.60;;;;;;;;;;10526252;28;20192;-71
2021/05/24 17:44:18;;;;;;;4.67;2.17;;;;;;;;;;10526487;28;20269;-70
2021/05/24 17:49:20;;;;;;;3.83;2.00;;;;;;;;;;10525872;28;20563;-71
2021/05/24 17:54:23;;;;;;;5.97;2.93;;;;;;;;;;10522859;28;20805;-67
2021/05/24 17:59:26;;;;;;;4.17;2.17;;;;;;;;;;10526985;28;20198;-70
2021/05/24 18:04:28;;;;;;;7.80;3.80;;;;;;;;;;10535242;28;20241;-66
2021/05/24 18:09:31;;;;;;;6.77;2.50;;;;;;;;;;10526992;28;20226;-67
2021/05/24 18:14:33;;;;;;;6.83;2.43;;;;;;;;;;10538889;28;20223;-70
2021/05/24 18:19:36;;;;;;;8.07;2.30;;;;;;;;;;10530650;28;20206;-67
2021/05/24 18:24:39;;;;;;;5.10;2.50;;;;;;;;;;10522748;28;20212;-67
2021/05/24 18:29:41;;;;;;;5.97;2.10;;;;;;;;;;10520762;28;20508;-67
2021/05/24 18:34:44;;;;;;;4.83;2.20;;;;;;;;;;10527525;28;20681;-67
2021/05/24 18:39:48;;;;;;;7.37;2.70;;;;;;;;;;10528024;28;20197;-70
2021/05/24 18:44:50;;;;;;;5.77;2.53;;;;;;;;;;10514579;28;20228;-68
2021/05/24 18:50:02;;;;;;;5.53;2.50;;;;;;;;;;10517408;28;20270;-70
2021/05/24 18:55:07;;;;;;;4.57;2.50;;;;;;;;;;10519211;28;20219;-71
2021/05/24 19:00:11;;;;;;;7.07;3.10;;;;;;;;;;10520770;28;20203;-70
2021/05/24 19:10:35;;;;;;;5.57;2.27;;;;;;;;;;10517495;28;20215;-70
2021/05/24 19:15:37;;;;;;;4.73;2.70;;;;;;;;;;10526601;28;20200;-70
2021/05/24 19:20:40;;;;;;;7.90;3.40;;;;;;;;;;10521302;28;20214;-69
2021/05/24 19:25:44;;;;;;;8.30;3.80;;;;;;;;;;10521708;28;20501;-71
2021/05/24 19:30:46;;;;;;;5.23;2.07;;;;;;;;;;10520662;28;20258;-70
2021/05/24 19:35:48;;;;;;;4.70;2.33;;;;;;;;;;10524478;28;20559;-70
2021/05/24 19:40:52;;;;;;;5.70;2.40;;;;;;;;;;10516116;28;21656;-70
2021/05/24 19:45:55;;;;;;;5.43;2.50;;;;;;;;;;10521972;28;20426;-71
2021/05/24 20:28:47;;;;;;;2.60;1.50;;;;;;;;;;10508819;28;20286;-69
2021/05/24 20:33:49;;;;;;;4.40;1.93;;;;;;;;;;10526151;28;20212;-70
2021/05/24 20:38:52;;;;;;;1.87;1.33;;;;;;;;;;10528882;28;20387;-70
2021/05/24 20:43:55;;;;;;;2.20;1.47;;;;;;;;;;10530504;28;20211;-71
2021/05/24 20:48:57;;;;;;;3.90;1.80;;;;;;;;;;10529460;28;20304;-69
2021/05/24 20:53:59;;;;;;;3.23;1.80;;;;;;;;;;10529502;28;20328;-70
2021/05/24 20:59:02;;;;;;;3.70;1.93;;;;;;;;;;10524692;28;20444;-71
2021/05/24 21:04:04;;;;;;;2.37;1.50;;;;;;;;;;10522965;28;20533;-69
2021/05/24 21:09:07;;;;;;;2.67;1.70;;;;;;;;;;10521812;28;20260;-70
2021/05/24 21:14:10;;;;;;;3.10;1.57;;;;;;;;;;10523002;28;20207;-70
2021/05/24 21:19:12;;;;;;;3.73;1.67;;;;;;;;;;10532454;28;20290;-71
2021/05/24 21:24:14;;;;;;;2.67;1.50;;;;;;;;;;10517267;28;20769;-69
2021/05/24 21:29:17;;;;;;;1.93;1.30;;;;;;;;;;10531999;28;20195;-70
2021/05/24 21:39:40;;;;;;;2.93;1.40;;;;;;;;;;10531381;28;20264;-69
2021/05/24 21:44:43;;;;;;;2.77;1.40;;;;;;;;;;10532424;28;20214;-70
2021/05/24 21:49:46;;;;;;;1.97;1.07;;;;;;;;;;10529067;28;20245;-70
2021/05/24 21:54:48;;;;;;;2.10;1.30;;;;;;;;;;10525418;28;20314;-70
2021/05/24 21:59:51;;;;;;;3.17;1.57;;;;;;;;;;10528245;28;20265;-70
2021/05/24 22:04:54;;;;;;;3.43;1.57;;;;;;;;;;10532179;28;20219;-72
2021/05/24 22:09:56;;;;;;;2.03;0.60;;;;;;;;;;10529682;28;20616;-71
2021/05/24 22:14:59;;;;;;;2.47;1.47;;;;;;;;;;10531794;28;20219;-71
2021/05/24 22:20:03;;;;;;;2.30;1.50;;;;;;;;;;10522052;28;20200;-70
2021/05/24 22:25:06;;;;;;;2.43;1.53;;;;;;;;;;10524785;28;20218;-71
2021/05/24 22:30:10;;;;;;;2.00;0.93;;;;;;;;;;10528729;28;20200;-70
2021/05/24 22:35:13;;;;;;;1.33;1.00;;;;;;;;;;10526653;28;20211;-71
2021/05/24 22:40:16;;;;;;;1.07;0.53;;;;;;;;;;10522475;28;20212;-71
2021/05/24 22:45:20;;;;;;;1.60;0.90;;;;;;;;;;10531490;28;20211;-71
2021/05/24 22:50:23;;;;;;;2.37;1.20;;;;;;;;;;10524431;28;20187;-73
2021/05/24 22:55:26;;;;;;;1.83;1.10;;;;;;;;;;10530066;28;20219;-71
2021/05/24 23:00:29;;;;;;;1.40;0.80;;;;;;;;;;10528965;28;20196;-70
2021/05/24 23:05:34;;;;;;;1.73;0.90;;;;;;;;;;10517768;28;20208;-70
2021/05/24 23:10:36;;;;;;;2.83;1.27;;;;;;;;;;10529476;28;20207;-71
2021/05/24 23:15:39;;;;;;;2.30;1.17;;;;;;;;;;10520214;28;20195;-70
2021/05/24 23:20:42;;;;;;;1.90;1.10;;;;;;;;;;10516022;28;20203;-71
2021/05/24 23:25:44;;;;;;;2.57;1.10;;;;;;;;;;10516728;28;20208;-70
2021/05/24 23:30:47;;;;;;;2.33;1.33;;;;;;;;;;10530958;28;20223;-70
2021/05/24 23:35:49;;;;;;;2.13;1.13;;;;;;;;;;10526029;28;20199;-71
2021/05/24 23:40:52;;;;;;;2.47;1.23;;;;;;;;;;10529394;28;20203;-72
2021/05/24 23:45:55;;;;;;;3.00;1.33;;;;;;;;;;10528378;28;20215;-71
2021/05/24 23:50:57;;;;;;;2.47;1.20;;;;;;;;;;10528209;28;20349;-70
2021/05/24 23:55:59;;;;;;;1.97;0.90;;;;;;;;;;10527139;28;20196;-71
